Архив погоды в Олекминске

Метеограмма Олекминск
Вторник, 14 Августа
Время местн. Темп Ветер Видим Явления Облачность нижн/средн/верх Атм. давл. Влжн Точка росы ВНГО R Сост. почвы Tg s
Напр Скр Прв ур.ст ур.м изм
21:00 +17.8° штиль 0 - 50 км - облачно 740 760 +0.2 75% +13.4° более 2.5 км 0 - - -
18:00 +25.9° В 2 - 50 км - облачно с прояснениями 740 760 -0.4 33% +8.6° более 2.5 км - - - -
15:00 +25° В 4 - 50 км - облачно с прояснениями 740 760 -0.5 40% +10.3° более 2.5 км - - - -
12:00 +21.7° В 3 - более 50 км - облачно с прояснениями 741 761 +0.5 52% +11.3° более 2.5 км - - - -
09:00 +16.5° В,С-В 4 - 50 км - переменная облачность 740 760 +0.8 73% +11.7° более 2.5 км 0 Влажная (без луж) - -
06:00 +12.2° В,С-В 3 - 20 км - переменная облачность 740 760 +0.8 86% +9.9° более 2.5 км - - - -
03:00 +13.8° В 2 - 20 км - облачно с прояснениями 739 759 +0.7 83% +11° более 2.5 км - - - -
00:00 +15.8° С-В 2 - 20 км - облачно 738 758 +0.8 81% +12.5° более 2.5 км - - - -
Понедельник, 13 Августа
Время местн. Темп Ветер Видим Явления Облачность нижн/средн/верх Атм. давл. Влжн Точка росы ВНГО R Сост. почвы Tg s
Напр Скр Прв ур.ст ур.м изм
21:00 +19.3° С-В 1 - 20 км - облачно 737 757 +0.6 83% +16.3° более 2.5 км 0 - - -
18:00 +24.5° В 2 - 10 км - облачно 737 756 -0.2 55% +14.8° 1 км - - - -
15:00 +23° В,Ю-В 2 - 10 км - облачно 737 757 -0.2 58% +14.2° 1 км - - - -
12:00 +21.6° В,Ю-В 2 - 10 км - облачно 737 757 +0.2 69% +15.6° 1.5 км - - - -
09:00 +15° В,С-В 2 - 10 км - облачно 737 757 +0.9 91% +13.6° 600 м 0 Влажная (без луж) +12° -
06:00 +12.4° В,С-В 3 - 20 км - облачно 736 756 +0.7 96% +11.8° 1.5 км - - - -
03:00 +13.2° В,С-В 2 - 20 км - облачно 735 756 +0.3 97% +12.7° более 2.5 км - - - -
00:00 +14.8° В 2 - 20 км - облачно 735 755 +0.5 96% +14.1° - - - - -
Воскресенье, 12 Августа
Время местн. Темп Ветер Видим Явления Облачность нижн/средн/верх Атм. давл. Влжн Точка росы ВНГО R Сост. почвы Tg s
Напр Скр Прв ур.ст ур.м изм
21:00 +18.8° В,С-В 2 - 20 км - облачно 735 754 +1 85% +16.3° 1 км 0 - - -
18:00 +21.7° В 2 - 20 км - облачно 734 753 +0.2 68% +15.5° 1 км - - - -
15:00 +22° - - - 20 км - облачно 733 753 -0.2 58% +13.4° 1 км - - - -
12:00 +19.4° Ю 1 - 20 км - облачно 734 753 0 66% +12.9° 1 км - - - -
09:00 +15.3° - - - 20 км небо без изменений {ливневые осадки} облачно 734 754 +0.1 87% +13.1° 600 м 9 Влажная (без луж) - -
06:00 +11.5° В 2 - 4 км слабый ливневый дождь облачно 733 754 -0.6 96% +10.9° 1 км - - - -
03:00 +11.8° штиль 0 - 4 км ливневый дождь облачно 734 754 -0.5 96% +11.2° 1 км - - - -
00:00 +12.6° штиль 0 - 4 км слабый ливневый дождь облачно 735 755 -0.2 96% +12° 1 км - - - -
Суббота, 11 Августа
Время местн. Темп Ветер Видим Явления Облачность нижн/средн/верх Атм. давл. Влжн Точка росы ВНГО R Сост. почвы Tg s
Напр Скр Прв ур.ст ур.м изм
21:00 +13° штиль 0 - 50 км слабый ливневый дождь облачно 735 755 -0.2 96% +12.3° 1 км 2 - - -
18:00 +15.6° штиль 0 - более 50 км - облачно 735 755 -0.9 84% +12.9° 1 км - - - -